Lincoln, Delaware
Current Conditions -  °F | °C
As of 5:54 AM on Friday 24 Oct 2014 (Local Time) from KGED Reporting Station
Overcast Overcast  
Wind Chill: 55°   Ceiling: 4000
Heat Index: 55°   Visibility: 10mi
Dew Point: 44°   Wind: 6mph
Humidity: 67%   Direction: NA
Pressure: 29.88"   Gusts: NA
Location:  38.87°N, 75.42°W
Report Text: KGED 240954Z AUTO VRB05KT 10SM OVC040 13/07 A2988 RMK AO2 SLP117 T01280067
Loading
Personal Weather Stations






























Interactive Weather Map
Tropical Storm Tracking
New forecast layout! Learn more

10-Day Weather Forecast

Advertisements
Track Severe Weather on mobile